sensor_id;sensor_type;location;lat;lon;timestamp;P1;durP1;ratioP1;P2;durP2;ratioP2
14251;SDS011;7210;51.502;10.722;2022-11-18T00:01:18;21.90;;;16.93;;
14251;SDS011;7210;51.502;10.722;2022-11-18T00:03:47;22.87;;;17.07;;
14251;SDS011;7210;51.502;10.722;2022-11-18T00:06:20;22.03;;;16.93;;
14251;SDS011;7210;51.502;10.722;2022-11-18T00:08:51;22.60;;;17.03;;
14251;SDS011;7210;51.502;10.722;2022-11-18T00:11:25;22.13;;;16.97;;
14251;SDS011;7210;51.502;10.722;2022-11-18T00:14:11;18.87;;;15.53;;
14251;SDS011;7210;51.502;10.722;2022-11-18T00:16:48;22.27;;;16.10;;
14251;SDS011;7210;51.502;10.722;2022-11-18T00:19:19;19.60;;;16.33;;
14251;SDS011;7210;51.502;10.722;2022-11-18T00:21:48;21.03;;;16.17;;
14251;SDS011;7210;51.502;10.722;2022-11-18T00:24:17;22.63;;;16.20;;
14251;SDS011;7210;51.502;10.722;2022-11-18T00:26:45;22.30;;;16.40;;
14251;SDS011;7210;51.502;10.722;2022-11-18T00:29:13;22.37;;;16.47;;
14251;SDS011;7210;51.502;10.722;2022-11-18T00:31:41;23.80;;;16.63;;
14251;SDS011;7210;51.502;10.722;2022-11-18T00:34:09;20.30;;;15.50;;
14251;SDS011;7210;51.502;10.722;2022-11-18T00:36:38;23.13;;;16.20;;
14251;SDS011;7210;51.502;10.722;2022-11-18T00:39:09;21.30;;;15.97;;
14251;SDS011;7210;51.502;10.722;2022-11-18T00:41:39;23.13;;;16.10;;
14251;SDS011;7210;51.502;10.722;2022-11-18T00:44:24;25.60;;;17.33;;
14251;SDS011;7210;51.502;10.722;2022-11-18T00:46:51;20.67;;;15.60;;
14251;SDS011;7210;51.502;10.722;2022-11-18T00:49:18;23.60;;;16.67;;
14251;SDS011;7210;51.502;10.722;2022-11-18T00:51:46;23.50;;;16.87;;
14251;SDS011;7210;51.502;10.722;2022-11-18T00:54:19;25.43;;;16.80;;
14251;SDS011;7210;51.502;10.722;2022-11-18T00:56:48;22.30;;;15.63;;
14251;SDS011;7210;51.502;10.722;2022-11-18T00:59:19;22.20;;;15.70;;
14251;SDS011;7210;51.502;10.722;2022-11-18T01:01:46;22.53;;;16.30;;
14251;SDS011;7210;51.502;10.722;2022-11-18T01:04:19;20.03;;;14.80;;
14251;SDS011;7210;51.502;10.722;2022-11-18T01:06:46;20.20;;;14.90;;
14251;SDS011;7210;51.502;10.722;2022-11-18T01:09:14;20.87;;;14.60;;
14251;SDS011;7210;51.502;10.722;2022-11-18T01:11:41;19.90;;;15.33;;
14251;SDS011;7210;51.502;10.722;2022-11-18T01:14:27;17.07;;;14.30;;
14251;SDS011;7210;51.502;10.722;2022-11-18T01:16:55;20.60;;;14.73;;
14251;SDS011;7210;51.502;10.722;2022-11-18T01:19:23;18.50;;;13.70;;
14251;SDS011;7210;51.502;10.722;2022-11-18T01:21:55;16.93;;;13.97;;
14251;SDS011;7210;51.502;10.722;2022-11-18T01:24:31;17.07;;;13.17;;
14251;SDS011;7210;51.502;10.722;2022-11-18T01:26:59;19.33;;;14.13;;
14251;SDS011;7210;51.502;10.722;2022-11-18T01:29:28;18.30;;;14.37;;
14251;SDS011;7210;51.502;10.722;2022-11-18T01:31:55;18.83;;;14.20;;
14251;SDS011;7210;51.502;10.722;2022-11-18T01:34:26;20.20;;;14.30;;
14251;SDS011;7210;51.502;10.722;2022-11-18T01:36:55;18.97;;;14.57;;
14251;SDS011;7210;51.502;10.722;2022-11-18T01:39:23;20.63;;;15.90;;
14251;SDS011;7210;51.502;10.722;2022-11-18T01:41:55;23.53;;;16.43;;
14251;SDS011;7210;51.502;10.722;2022-11-18T01:47:46;22.20;;;15.57;;
14251;SDS011;7210;51.502;10.722;2022-11-18T01:50:25;24.67;;;16.93;;
14251;SDS011;7210;51.502;10.722;2022-11-18T01:52:56;20.73;;;16.00;;
14251;SDS011;7210;51.502;10.722;2022-11-18T01:55:30;19.37;;;15.70;;
14251;SDS011;7210;51.502;10.722;2022-11-18T01:58:05;21.53;;;15.90;;
14251;SDS011;7210;51.502;10.722;2022-11-18T02:00:37;21.93;;;16.23;;
14251;SDS011;7210;51.502;10.722;2022-11-18T02:03:05;20.43;;;16.47;;
14251;SDS011;7210;51.502;10.722;2022-11-18T02:05:33;23.70;;;17.70;;
14251;SDS011;7210;51.502;10.722;2022-11-18T02:08:03;21.40;;;16.90;;
14251;SDS011;7210;51.502;10.722;2022-11-18T02:10:33;21.67;;;16.77;;
14251;SDS011;7210;51.502;10.722;2022-11-18T02:13:00;19.80;;;16.80;;
14251;SDS011;7210;51.502;10.722;2022-11-18T02:15:33;23.97;;;17.60;;
14251;SDS011;7210;51.502;10.722;2022-11-18T02:18:16;22.67;;;16.53;;
14251;SDS011;7210;51.502;10.722;2022-11-18T02:21:04;23.20;;;16.83;;
14251;SDS011;7210;51.502;10.722;2022-11-18T02:30:09;19.03;;;13.60;;
14251;SDS011;7210;51.502;10.722;2022-11-18T02:32:42;18.57;;;13.77;;
14251;SDS011;7210;51.502;10.722;2022-11-18T02:35:21;18.20;;;14.80;;
14251;SDS011;7210;51.502;10.722;2022-11-18T02:37:56;16.80;;;13.17;;
14251;SDS011;7210;51.502;10.722;2022-11-18T02:40:32;18.57;;;13.77;;
14251;SDS011;7210;51.502;10.722;2022-11-18T02:43:05;17.20;;;12.73;;
14251;SDS011;7210;51.502;10.722;2022-11-18T02:45:45;18.37;;;13.10;;
14251;SDS011;7210;51.502;10.722;2022-11-18T02:48:18;16.20;;;13.83;;
14251;SDS011;7210;51.502;10.722;2022-11-18T02:50:52;16.33;;;13.13;;
14251;SDS011;7210;51.502;10.722;2022-11-18T02:53:22;18.47;;;13.67;;
14251;SDS011;7210;51.502;10.722;2022-11-18T02:55:54;17.40;;;13.20;;
14251;SDS011;7210;51.502;10.722;2022-11-18T02:58:23;16.77;;;12.60;;
14251;SDS011;7210;51.502;10.722;2022-11-18T03:00:53;17.67;;;13.13;;
14251;SDS011;7210;51.502;10.722;2022-11-18T03:03:23;15.77;;;12.40;;
14251;SDS011;7210;51.502;10.722;2022-11-18T03:05:58;16.73;;;13.07;;
14251;SDS011;7210;51.502;10.722;2022-11-18T03:08:37;17.10;;;12.00;;
14251;SDS011;7210;51.502;10.722;2022-11-18T03:14:06;15.87;;;12.80;;
14251;SDS011;7210;51.502;10.722;2022-11-18T03:16:48;17.97;;;13.20;;
14251;SDS011;7210;51.502;10.722;2022-11-18T03:19:29;18.20;;;12.77;;
14251;SDS011;7210;51.502;10.722;2022-11-18T03:22:12;15.37;;;12.90;;
14251;SDS011;7210;51.502;10.722;2022-11-18T03:24:51;14.97;;;11.30;;
14251;SDS011;7210;51.502;10.722;2022-11-18T03:27:28;14.67;;;12.20;;
14251;SDS011;7210;51.502;10.722;2022-11-18T03:30:02;15.53;;;12.30;;
14251;SDS011;7210;51.502;10.722;2022-11-18T03:32:38;16.27;;;12.60;;
14251;SDS011;7210;51.502;10.722;2022-11-18T03:35:12;14.87;;;11.90;;
14251;SDS011;7210;51.502;10.722;2022-11-18T03:37:46;15.03;;;11.60;;
14251;SDS011;7210;51.502;10.722;2022-11-18T03:40:22;16.03;;;11.73;;
14251;SDS011;7210;51.502;10.722;2022-11-18T03:42:55;15.00;;;12.30;;
14251;SDS011;7210;51.502;10.722;2022-11-18T03:45:32;15.77;;;12.03;;
14251;SDS011;7210;51.502;10.722;2022-11-18T03:48:08;18.33;;;12.93;;
14251;SDS011;7210;51.502;10.722;2022-11-18T03:50:41;15.50;;;12.23;;
14251;SDS011;7210;51.502;10.722;2022-11-18T03:53:15;18.03;;;13.13;;
14251;SDS011;7210;51.502;10.722;2022-11-18T03:55:53;18.10;;;13.83;;
14251;SDS011;7210;51.502;10.722;2022-11-18T03:58:28;15.73;;;12.90;;
14251;SDS011;7210;51.502;10.722;2022-11-18T04:01:03;18.47;;;12.77;;
14251;SDS011;7210;51.502;10.722;2022-11-18T04:03:40;21.17;;;13.90;;
14251;SDS011;7210;51.502;10.722;2022-11-18T04:06:11;18.30;;;13.40;;
14251;SDS011;7210;51.502;10.722;2022-11-18T04:08:51;18.00;;;13.83;;
14251;SDS011;7210;51.502;10.722;2022-11-18T04:11:29;18.90;;;14.50;;
14251;SDS011;7210;51.502;10.722;2022-11-18T04:14:19;18.30;;;12.73;;
14251;SDS011;7210;51.502;10.722;2022-11-18T04:16:49;16.40;;;13.60;;
14251;SDS011;7210;51.502;10.722;2022-11-18T04:19:19;19.67;;;14.77;;
14251;SDS011;7210;51.502;10.722;2022-11-18T04:21:47;19.53;;;15.03;;
14251;SDS011;7210;51.502;10.722;2022-11-18T04:24:15;20.67;;;15.13;;
14251;SDS011;7210;51.502;10.722;2022-11-18T04:26:42;20.53;;;15.40;;
14251;SDS011;7210;51.502;10.722;2022-11-18T04:29:09;19.97;;;14.53;;
14251;SDS011;7210;51.502;10.722;2022-11-18T04:31:39;20.93;;;14.30;;
14251;SDS011;7210;51.502;10.722;2022-11-18T04:34:07;18.93;;;15.30;;
14251;SDS011;7210;51.502;10.722;2022-11-18T04:36:35;19.90;;;14.73;;
14251;SDS011;7210;51.502;10.722;2022-11-18T04:39:03;18.73;;;14.17;;
14251;SDS011;7210;51.502;10.722;2022-11-18T04:41:30;16.23;;;13.33;;
14251;SDS011;7210;51.502;10.722;2022-11-18T04:44:15;16.53;;;13.73;;
14251;SDS011;7210;51.502;10.722;2022-11-18T04:46:42;16.13;;;13.87;;
14251;SDS011;7210;51.502;10.722;2022-11-18T04:49:11;14.40;;;12.37;;
14251;SDS011;7210;51.502;10.722;2022-11-18T04:51:42;17.13;;;13.30;;
14251;SDS011;7210;51.502;10.722;2022-11-18T04:54:12;17.40;;;13.10;;
14251;SDS011;7210;51.502;10.722;2022-11-18T04:56:41;18.77;;;12.37;;
14251;SDS011;7210;51.502;10.722;2022-11-18T04:59:16;16.20;;;12.93;;
14251;SDS011;7210;51.502;10.722;2022-11-18T05:01:45;14.97;;;12.80;;
14251;SDS011;7210;51.502;10.722;2022-11-18T05:04:14;17.43;;;13.57;;
14251;SDS011;7210;51.502;10.722;2022-11-18T05:06:47;17.13;;;13.43;;
14251;SDS011;7210;51.502;10.722;2022-11-18T05:09:15;18.07;;;14.17;;
14251;SDS011;7210;51.502;10.722;2022-11-18T05:11:42;19.03;;;14.57;;
14251;SDS011;7210;51.502;10.722;2022-11-18T05:14:39;17.13;;;13.60;;
14251;SDS011;7210;51.502;10.722;2022-11-18T05:17:09;20.30;;;14.07;;
14251;SDS011;7210;51.502;10.722;2022-11-18T05:19:37;16.63;;;12.80;;
14251;SDS011;7210;51.502;10.722;2022-11-18T05:22:06;18.90;;;13.73;;
14251;SDS011;7210;51.502;10.722;2022-11-18T05:24:33;17.33;;;13.97;;
14251;SDS011;7210;51.502;10.722;2022-11-18T05:27:00;18.57;;;14.30;;
14251;SDS011;7210;51.502;10.722;2022-11-18T05:29:33;16.53;;;14.33;;
14251;SDS011;7210;51.502;10.722;2022-11-18T05:32:01;18.97;;;14.47;;
14251;SDS011;7210;51.502;10.722;2022-11-18T05:34:28;17.63;;;13.47;;
14251;SDS011;7210;51.502;10.722;2022-11-18T05:36:55;15.83;;;13.50;;
14251;SDS011;7210;51.502;10.722;2022-11-18T05:39:24;16.23;;;12.13;;
14251;SDS011;7210;51.502;10.722;2022-11-18T05:41:51;13.97;;;11.10;;
14251;SDS011;7210;51.502;10.722;2022-11-18T05:44:36;13.77;;;11.20;;
14251;SDS011;7210;51.502;10.722;2022-11-18T05:47:03;12.83;;;10.63;;
14251;SDS011;7210;51.502;10.722;2022-11-18T05:49:33;11.37;;;10.00;;
14251;SDS011;7210;51.502;10.722;2022-11-18T05:52:01;12.97;;;9.90;;
14251;SDS011;7210;51.502;10.722;2022-11-18T05:54:30;11.27;;;10.07;;
14251;SDS011;7210;51.502;10.722;2022-11-18T05:57:03;11.10;;;9.53;;
14251;SDS011;7210;51.502;10.722;2022-11-18T05:59:31;12.57;;;9.97;;
14251;SDS011;7210;51.502;10.722;2022-11-18T06:01:58;11.53;;;8.73;;
14251;SDS011;7210;51.502;10.722;2022-11-18T06:04:33;9.97;;;8.97;;
14251;SDS011;7210;51.502;10.722;2022-11-18T06:07:07;11.27;;;8.57;;
14251;SDS011;7210;51.502;10.722;2022-11-18T06:09:42;12.50;;;8.97;;
14251;SDS011;7210;51.502;10.722;2022-11-18T06:12:14;12.00;;;9.40;;
14251;SDS011;7210;51.502;10.722;2022-11-18T06:14:45;10.20;;;8.30;;
14251;SDS011;7210;51.502;10.722;2022-11-18T06:17:19;9.70;;;8.33;;
14251;SDS011;7210;51.502;10.722;2022-11-18T06:19:52;9.43;;;7.90;;
14251;SDS011;7210;51.502;10.722;2022-11-18T06:22:19;9.53;;;8.00;;
14251;SDS011;7210;51.502;10.722;2022-11-18T06:24:48;8.77;;;7.53;;
14251;SDS011;7210;51.502;10.722;2022-11-18T06:27:16;10.57;;;7.63;;
14251;SDS011;7210;51.502;10.722;2022-11-18T06:29:44;9.50;;;8.10;;
14251;SDS011;7210;51.502;10.722;2022-11-18T06:32:11;9.53;;;7.63;;
14251;SDS011;7210;51.502;10.722;2022-11-18T06:34:39;9.13;;;8.23;;
14251;SDS011;7210;51.502;10.722;2022-11-18T06:37:12;9.77;;;8.20;;
14251;SDS011;7210;51.502;10.722;2022-11-18T06:39:41;9.23;;;8.30;;
14251;SDS011;7210;51.502;10.722;2022-11-18T06:42:10;10.43;;;8.83;;
14251;SDS011;7210;51.502;10.722;2022-11-18T06:44:58;9.77;;;8.57;;
14251;SDS011;7210;51.502;10.722;2022-11-18T06:47:26;11.33;;;9.10;;
14251;SDS011;7210;51.502;10.722;2022-11-18T06:49:57;9.63;;;8.63;;
14251;SDS011;7210;51.502;10.722;2022-11-18T06:52:25;10.30;;;9.20;;
14251;SDS011;7210;51.502;10.722;2022-11-18T06:54:53;10.23;;;9.20;;
14251;SDS011;7210;51.502;10.722;2022-11-18T06:57:23;10.67;;;9.67;;
14251;SDS011;7210;51.502;10.722;2022-11-18T06:59:50;10.20;;;9.10;;
14251;SDS011;7210;51.502;10.722;2022-11-18T07:02:17;10.67;;;9.53;;
14251;SDS011;7210;51.502;10.722;2022-11-18T07:04:45;10.90;;;9.80;;
14251;SDS011;7210;51.502;10.722;2022-11-18T07:07:12;10.53;;;9.40;;
14251;SDS011;7210;51.502;10.722;2022-11-18T07:09:39;10.50;;;9.37;;
14251;SDS011;7210;51.502;10.722;2022-11-18T07:12:07;10.07;;;9.03;;
14251;SDS011;7210;51.502;10.722;2022-11-18T07:14:35;9.83;;;8.83;;
14251;SDS011;7210;51.502;10.722;2022-11-18T07:17:03;9.80;;;8.80;;
14251;SDS011;7210;51.502;10.722;2022-11-18T07:19:33;10.20;;;9.07;;
14251;SDS011;7210;51.502;10.722;2022-11-18T07:22:01;10.30;;;9.20;;
14251;SDS011;7210;51.502;10.722;2022-11-18T07:24:28;9.80;;;8.80;;
14251;SDS011;7210;51.502;10.722;2022-11-18T07:26:55;9.07;;;8.17;;
14251;SDS011;7210;51.502;10.722;2022-11-18T07:29:22;8.87;;;7.97;;
14251;SDS011;7210;51.502;10.722;2022-11-18T07:31:53;8.97;;;8.17;;
14251;SDS011;7210;51.502;10.722;2022-11-18T07:34:20;8.43;;;7.63;;
14251;SDS011;7210;51.502;10.722;2022-11-18T07:36:47;8.33;;;7.53;;
14251;SDS011;7210;51.502;10.722;2022-11-18T07:39:15;8.87;;;7.83;;
14251;SDS011;7210;51.502;10.722;2022-11-18T07:41:42;12.27;;;8.20;;
14251;SDS011;7210;51.502;10.722;2022-11-18T07:44:11;8.77;;;7.87;;
14251;SDS011;7210;51.502;10.722;2022-11-18T07:46:43;8.60;;;7.80;;
14251;SDS011;7210;51.502;10.722;2022-11-18T07:49:12;8.63;;;7.73;;
14251;SDS011;7210;51.502;10.722;2022-11-18T07:51:41;8.83;;;7.87;;
14251;SDS011;7210;51.502;10.722;2022-11-18T07:54:11;8.63;;;7.70;;
14251;SDS011;7210;51.502;10.722;2022-11-18T07:56:42;9.10;;;7.53;;
14251;SDS011;7210;51.502;10.722;2022-11-18T07:59:11;9.33;;;8.27;;
14251;SDS011;7210;51.502;10.722;2022-11-18T08:01:39;8.60;;;7.80;;
14251;SDS011;7210;51.502;10.722;2022-11-18T08:04:09;8.70;;;7.80;;
14251;SDS011;7210;51.502;10.722;2022-11-18T08:06:39;8.47;;;7.40;;
14251;SDS011;7210;51.502;10.722;2022-11-18T08:09:09;9.27;;;7.87;;
14251;SDS011;7210;51.502;10.722;2022-11-18T08:11:37;8.60;;;7.67;;
14251;SDS011;7210;51.502;10.722;2022-11-18T08:14:05;8.07;;;7.27;;
14251;SDS011;7210;51.502;10.722;2022-11-18T08:16:32;8.70;;;7.30;;
14251;SDS011;7210;51.502;10.722;2022-11-18T08:18:59;8.37;;;7.50;;
14251;SDS011;7210;51.502;10.722;2022-11-18T08:21:28;8.30;;;6.90;;
14251;SDS011;7210;51.502;10.722;2022-11-18T08:23:56;7.80;;;7.10;;
14251;SDS011;7210;51.502;10.722;2022-11-18T08:26:24;7.93;;;7.13;;
14251;SDS011;7210;51.502;10.722;2022-11-18T08:28:52;7.47;;;6.73;;
14251;SDS011;7210;51.502;10.722;2022-11-18T08:31:21;7.03;;;6.33;;
14251;SDS011;7210;51.502;10.722;2022-11-18T08:33:52;8.50;;;7.23;;
14251;SDS011;7210;51.502;10.722;2022-11-18T08:36:22;7.63;;;5.80;;
14251;SDS011;7210;51.502;10.722;2022-11-18T08:38:55;7.33;;;6.63;;
14251;SDS011;7210;51.502;10.722;2022-11-18T08:41:26;7.10;;;6.40;;
14251;SDS011;7210;51.502;10.722;2022-11-18T08:43:59;7.67;;;6.87;;
14251;SDS011;7210;51.502;10.722;2022-11-18T08:46:27;7.53;;;6.80;;
14251;SDS011;7210;51.502;10.722;2022-11-18T08:48:54;8.37;;;7.47;;
14251;SDS011;7210;51.502;10.722;2022-11-18T08:51:22;7.87;;;7.07;;
14251;SDS011;7210;51.502;10.722;2022-11-18T08:53:59;10.13;;;8.03;;
14251;SDS011;7210;51.502;10.722;2022-11-18T08:56:28;8.63;;;7.73;;
14251;SDS011;7210;51.502;10.722;2022-11-18T08:58:55;10.17;;;8.60;;
14251;SDS011;7210;51.502;10.722;2022-11-18T09:01:23;10.70;;;8.50;;
14251;SDS011;7210;51.502;10.722;2022-11-18T09:03:50;10.27;;;8.73;;
14251;SDS011;7210;51.502;10.722;2022-11-18T09:06:18;9.70;;;8.70;;
14251;SDS011;7210;51.502;10.722;2022-11-18T09:08:49;9.67;;;8.67;;
14251;SDS011;7210;51.502;10.722;2022-11-18T09:11:19;10.60;;;9.50;;
14251;SDS011;7210;51.502;10.722;2022-11-18T09:13:50;10.83;;;9.73;;
14251;SDS011;7210;51.502;10.722;2022-11-18T09:16:19;9.97;;;8.97;;
14251;SDS011;7210;51.502;10.722;2022-11-18T09:18:48;12.03;;;9.90;;
14251;SDS011;7210;51.502;10.722;2022-11-18T09:21:15;11.37;;;10.07;;
14251;SDS011;7210;51.502;10.722;2022-11-18T09:23:51;12.20;;;10.87;;
14251;SDS011;7210;51.502;10.722;2022-11-18T09:26:21;11.53;;;9.83;;
14251;SDS011;7210;51.502;10.722;2022-11-18T09:28:51;11.27;;;10.07;;
14251;SDS011;7210;51.502;10.722;2022-11-18T09:31:19;12.03;;;10.53;;
14251;SDS011;7210;51.502;10.722;2022-11-18T09:33:51;11.33;;;10.17;;
14251;SDS011;7210;51.502;10.722;2022-11-18T09:36:21;12.87;;;10.57;;
14251;SDS011;7210;51.502;10.722;2022-11-18T09:38:50;13.20;;;10.80;;
14251;SDS011;7210;51.502;10.722;2022-11-18T09:41:39;11.23;;;10.03;;
14251;SDS011;7210;51.502;10.722;2022-11-18T09:44:14;11.77;;;10.03;;
14251;SDS011;7210;51.502;10.722;2022-11-18T09:47:05;13.33;;;9.93;;
14251;SDS011;7210;51.502;10.722;2022-11-18T09:49:44;13.83;;;10.57;;
14251;SDS011;7210;51.502;10.722;2022-11-18T09:52:14;11.67;;;10.30;;
14251;SDS011;7210;51.502;10.722;2022-11-18T09:54:46;11.07;;;9.97;;
14251;SDS011;7210;51.502;10.722;2022-11-18T09:57:16;14.93;;;12.83;;
14251;SDS011;7210;51.502;10.722;2022-11-18T09:59:46;25.43;;;17.90;;
14251;SDS011;7210;51.502;10.722;2022-11-18T10:02:21;17.20;;;14.40;;
14251;SDS011;7210;51.502;10.722;2022-11-18T10:05:13;16.07;;;14.00;;
14251;SDS011;7210;51.502;10.722;2022-11-18T10:07:46;15.63;;;13.03;;
14251;SDS011;7210;51.502;10.722;2022-11-18T10:10:27;15.27;;;12.67;;
14251;SDS011;7210;51.502;10.722;2022-11-18T10:13:11;14.57;;;12.70;;
14251;SDS011;7210;51.502;10.722;2022-11-18T10:15:53;15.30;;;11.93;;
14251;SDS011;7210;51.502;10.722;2022-11-18T10:18:35;13.97;;;12.27;;
14251;SDS011;7210;51.502;10.722;2022-11-18T10:21:15;16.23;;;12.87;;
14251;SDS011;7210;51.502;10.722;2022-11-18T10:23:54;15.17;;;12.77;;
14251;SDS011;7210;51.502;10.722;2022-11-18T10:26:30;15.73;;;11.97;;
14251;SDS011;7210;51.502;10.722;2022-11-18T10:29:01;14.17;;;12.13;;
14251;SDS011;7210;51.502;10.722;2022-11-18T10:31:31;15.67;;;12.80;;
14251;SDS011;7210;51.502;10.722;2022-11-18T10:34:03;15.17;;;12.37;;
14251;SDS011;7210;51.502;10.722;2022-11-18T10:36:32;15.73;;;12.67;;
14251;SDS011;7210;51.502;10.722;2022-11-18T10:39:08;14.10;;;12.23;;
14251;SDS011;7210;51.502;10.722;2022-11-18T10:41:49;16.70;;;13.10;;
14251;SDS011;7210;51.502;10.722;2022-11-18T10:44:26;13.97;;;11.50;;
14251;SDS011;7210;51.502;10.722;2022-11-18T10:49:56;14.27;;;11.37;;
14251;SDS011;7210;51.502;10.722;2022-11-18T10:52:26;13.27;;;11.07;;
14251;SDS011;7210;51.502;10.722;2022-11-18T10:55:06;13.07;;;11.50;;
14251;SDS011;7210;51.502;10.722;2022-11-18T10:57:46;15.23;;;12.07;;
14251;SDS011;7210;51.502;10.722;2022-11-18T11:09:04;14.87;;;11.10;;
14251;SDS011;7210;51.502;10.722;2022-11-18T11:11:35;12.93;;;10.47;;
14251;SDS011;7210;51.502;10.722;2022-11-18T11:14:13;13.67;;;10.83;;
14251;SDS011;7210;51.502;10.722;2022-11-18T11:16:49;12.33;;;9.73;;
14251;SDS011;7210;51.502;10.722;2022-11-18T11:19:30;12.10;;;10.20;;
14251;SDS011;7210;51.502;10.722;2022-11-18T11:22:16;11.77;;;10.07;;
14251;SDS011;7210;51.502;10.722;2022-11-18T11:24:44;13.57;;;10.77;;
14251;SDS011;7210;51.502;10.722;2022-11-18T11:30:27;11.27;;;9.47;;
14251;SDS011;7210;51.502;10.722;2022-11-18T11:33:24;11.00;;;9.20;;
14251;SDS011;7210;51.502;10.722;2022-11-18T11:36:02;11.27;;;9.67;;
14251;SDS011;7210;51.502;10.722;2022-11-18T11:38:48;12.10;;;10.33;;
14251;SDS011;7210;51.502;10.722;2022-11-18T11:41:26;12.77;;;10.63;;
14251;SDS011;7210;51.502;10.722;2022-11-18T11:44:08;12.70;;;11.00;;
14251;SDS011;7210;51.502;10.722;2022-11-18T11:46:58;13.10;;;10.53;;
14251;SDS011;7210;51.502;10.722;2022-11-18T11:50:00;11.97;;;10.13;;
14251;SDS011;7210;51.502;10.722;2022-11-18T11:52:39;14.00;;;11.30;;
14251;SDS011;7210;51.502;10.722;2022-11-18T11:55:21;11.20;;;8.73;;
14251;SDS011;7210;51.502;10.722;2022-11-18T12:00:59;10.80;;;8.67;;
14251;SDS011;7210;51.502;10.722;2022-11-18T12:03:39;11.13;;;9.00;;
14251;SDS011;7210;51.502;10.722;2022-11-18T12:06:13;11.87;;;9.70;;
14251;SDS011;7210;51.502;10.722;2022-11-18T12:08:44;11.03;;;8.97;;
14251;SDS011;7210;51.502;10.722;2022-11-18T12:11:28;10.53;;;9.00;;
14251;SDS011;7210;51.502;10.722;2022-11-18T12:14:10;12.50;;;10.97;;
14251;SDS011;7210;51.502;10.722;2022-11-18T12:16:54;13.87;;;10.10;;
14251;SDS011;7210;51.502;10.722;2022-11-18T12:19:36;13.63;;;10.00;;
14251;SDS011;7210;51.502;10.722;2022-11-18T12:22:06;11.93;;;9.73;;
14251;SDS011;7210;51.502;10.722;2022-11-18T12:24:34;13.70;;;9.57;;
14251;SDS011;7210;51.502;10.722;2022-11-18T12:27:04;12.47;;;9.50;;
14251;SDS011;7210;51.502;10.722;2022-11-18T12:29:43;12.97;;;9.03;;
14251;SDS011;7210;51.502;10.722;2022-11-18T12:32:28;13.00;;;8.97;;
14251;SDS011;7210;51.502;10.722;2022-11-18T12:35:02;9.53;;;8.03;;
14251;SDS011;7210;51.502;10.722;2022-11-18T12:37:57;10.00;;;7.40;;
14251;SDS011;7210;51.502;10.722;2022-11-18T12:40:37;8.23;;;7.13;;
14251;SDS011;7210;51.502;10.722;2022-11-18T12:52:52;6.40;;;5.20;;
14251;SDS011;7210;51.502;10.722;2022-11-18T12:58:27;13.83;;;12.40;;
14251;SDS011;7210;51.502;10.722;2022-11-18T13:01:05;10.43;;;8.10;;
14251;SDS011;7210;51.502;10.722;2022-11-18T13:03:39;6.73;;;5.70;;
14251;SDS011;7210;51.502;10.722;2022-11-18T13:06:11;7.53;;;6.37;;
14251;SDS011;7210;51.502;10.722;2022-11-18T13:08:49;6.30;;;5.50;;
14251;SDS011;7210;51.502;10.722;2022-11-18T13:11:24;7.17;;;5.83;;
14251;SDS011;7210;51.502;10.722;2022-11-18T13:14:13;6.97;;;6.10;;
14251;SDS011;7210;51.502;10.722;2022-11-18T13:17:01;7.00;;;5.87;;
14251;SDS011;7210;51.502;10.722;2022-11-18T13:20:15;8.03;;;5.93;;
14251;SDS011;7210;51.502;10.722;2022-11-18T13:22:49;6.67;;;5.90;;
14251;SDS011;7210;51.502;10.722;2022-11-18T13:25:34;7.67;;;6.03;;
14251;SDS011;7210;51.502;10.722;2022-11-18T13:28:06;8.50;;;6.67;;
14251;SDS011;7210;51.502;10.722;2022-11-18T13:30:47;8.63;;;5.87;;
14251;SDS011;7210;51.502;10.722;2022-11-18T13:33:21;6.87;;;5.63;;
14251;SDS011;7210;51.502;10.722;2022-11-18T13:35:49;7.10;;;5.73;;
14251;SDS011;7210;51.502;10.722;2022-11-18T13:38:21;7.83;;;6.27;;
14251;SDS011;7210;51.502;10.722;2022-11-18T13:40:50;7.07;;;5.73;;
14251;SDS011;7210;51.502;10.722;2022-11-18T13:43:33;9.00;;;7.00;;
14251;SDS011;7210;51.502;10.722;2022-11-18T13:46:02;10.10;;;6.83;;
14251;SDS011;7210;51.502;10.722;2022-11-18T13:48:40;7.77;;;6.47;;
14251;SDS011;7210;51.502;10.722;2022-11-18T13:51:17;7.37;;;6.20;;
14251;SDS011;7210;51.502;10.722;2022-11-18T13:53:46;8.57;;;6.80;;
14251;SDS011;7210;51.502;10.722;2022-11-18T13:56:15;7.87;;;6.37;;
14251;SDS011;7210;51.502;10.722;2022-11-18T13:58:51;6.97;;;6.17;;
14251;SDS011;7210;51.502;10.722;2022-11-18T14:01:28;7.80;;;6.67;;
14251;SDS011;7210;51.502;10.722;2022-11-18T14:03:58;8.37;;;6.97;;
14251;SDS011;7210;51.502;10.722;2022-11-18T14:06:29;9.53;;;6.87;;
14251;SDS011;7210;51.502;10.722;2022-11-18T14:09:06;7.30;;;6.40;;
14251;SDS011;7210;51.502;10.722;2022-11-18T14:11:56;7.57;;;5.70;;
14251;SDS011;7210;51.502;10.722;2022-11-18T14:14:35;8.82;;;8.02;;
14251;SDS011;7210;51.502;10.722;2022-11-18T14:17:14;6.90;;;6.20;;
14251;SDS011;7210;51.502;10.722;2022-11-18T14:19:44;8.63;;;7.40;;
14251;SDS011;7210;51.502;10.722;2022-11-18T14:22:14;7.97;;;6.63;;
14251;SDS011;7210;51.502;10.722;2022-11-18T14:24:52;7.67;;;6.83;;
14251;SDS011;7210;51.502;10.722;2022-11-18T14:27:32;8.60;;;7.13;;
14251;SDS011;7210;51.502;10.722;2022-11-18T14:33:09;8.30;;;7.20;;
14251;SDS011;7210;51.502;10.722;2022-11-18T14:35:40;9.17;;;8.03;;
14251;SDS011;7210;51.502;10.722;2022-11-18T14:38:10;8.23;;;6.53;;
14251;SDS011;7210;51.502;10.722;2022-11-18T14:40:41;8.13;;;6.90;;
14251;SDS011;7210;51.502;10.722;2022-11-18T14:43:10;8.10;;;7.30;;
14251;SDS011;7210;51.502;10.722;2022-11-18T14:45:41;8.33;;;6.50;;
14251;SDS011;7210;51.502;10.722;2022-11-18T14:48:09;8.63;;;7.30;;
14251;SDS011;7210;51.502;10.722;2022-11-18T14:50:39;7.83;;;6.47;;
14251;SDS011;7210;51.502;10.722;2022-11-18T14:53:08;6.93;;;6.23;;
14251;SDS011;7210;51.502;10.722;2022-11-18T14:55:36;7.07;;;6.37;;
14251;SDS011;7210;51.502;10.722;2022-11-18T14:58:04;7.17;;;6.37;;
14251;SDS011;7210;51.502;10.722;2022-11-18T15:00:37;7.50;;;6.20;;
14251;SDS011;7210;51.502;10.722;2022-11-18T15:03:06;7.20;;;6.33;;
14251;SDS011;7210;51.502;10.722;2022-11-18T15:05:33;9.20;;;8.25;;
14251;SDS011;7210;51.502;10.722;2022-11-18T15:08:01;8.43;;;7.40;;
14251;SDS011;7210;51.502;10.722;2022-11-18T15:10:39;8.80;;;6.73;;
14251;SDS011;7210;51.502;10.722;2022-11-18T15:13:07;9.20;;;7.07;;
14251;SDS011;7210;51.502;10.722;2022-11-18T15:15:34;11.47;;;8.77;;
14251;SDS011;7210;51.502;10.722;2022-11-18T15:18:03;10.00;;;7.90;;
14251;SDS011;7210;51.502;10.722;2022-11-18T15:20:34;10.17;;;8.53;;
14251;SDS011;7210;51.502;10.722;2022-11-18T15:23:01;9.00;;;7.40;;
14251;SDS011;7210;51.502;10.722;2022-11-18T15:25:45;10.23;;;7.97;;
14251;SDS011;7210;51.502;10.722;2022-11-18T15:28:13;10.13;;;8.13;;
14251;SDS011;7210;51.502;10.722;2022-11-18T15:30:40;10.63;;;8.57;;
14251;SDS011;7210;51.502;10.722;2022-11-18T15:33:09;10.70;;;8.40;;
14251;SDS011;7210;51.502;10.722;2022-11-18T15:35:36;9.63;;;8.30;;
14251;SDS011;7210;51.502;10.722;2022-11-18T15:38:04;9.47;;;7.87;;
14251;SDS011;7210;51.502;10.722;2022-11-18T15:40:31;12.27;;;9.67;;
14251;SDS011;7210;51.502;10.722;2022-11-18T15:43:03;11.47;;;9.70;;
14251;SDS011;7210;51.502;10.722;2022-11-18T15:45:33;16.30;;;13.77;;
14251;SDS011;7210;51.502;10.722;2022-11-18T15:48:04;17.03;;;14.70;;
14251;SDS011;7210;51.502;10.722;2022-11-18T15:50:32;14.13;;;12.53;;